Terminal Aerodrome Forecast
Issued by NWS

Home | Current Version | Previous Version | Text Only | Print | Product List | Glossary On
Versions: 1 2 3 4 5 6 7 8 9 10 11 12
000
FTUS45 KVEF 021100 RRA
TAFDAG
TAF
KDAG 021149Z 0212/0312 28006KT P6SM SKC
     FM021900 06008KT P6SM SKC
     FM030200 VRB04KT P6SM SKC
     FM030600 27008KT P6SM SKC=

USA.gov is the U.S. government's official web portal to all federal, state and local government web resources and services.